Time;durP1;ratioP1;P1;durP2;ratioP2;P2;SDS_P1;SDS_P2;PMS_P1;PMS_P2;Temp;Humidity;BMP_temperature;BMP_pressure;BME280_temperature;BME280_humidity;BME280_pressure;Samples;Min_cycle;Max_cycle;Signal;HPM_P1;HPM_P2
2022/04/10 00:00:40;;;;;;;10.32;5.43;;;;;;;2.88;74.14;101756.19;4703268;30;20033;-89
2022/04/10 00:03:06;;;;;;;10.15;5.75;;;;;;;2.91;74.04;101777.09;4699968;30;20033;-88
2022/04/10 00:05:31;;;;;;;12.00;5.45;;;;;;;2.91;74.28;101779.72;4701729;30;20398;-88
2022/04/10 00:07:57;;;;;;;9.25;5.05;;;;;;;2.93;73.90;101784.06;4704786;30;20049;-88
2022/04/10 00:10:22;;;;;;;7.45;5.07;;;;;;;2.86;74.00;101774.47;4690923;30;20129;-88
2022/04/10 00:12:47;;;;;;;10.70;6.18;;;;;;;2.87;74.08;101780.56;4691476;30;20403;-88
2022/04/10 00:15:13;;;;;;;9.38;5.97;;;;;;;2.85;74.19;101787.50;4688247;30;20053;-88
2022/04/10 00:17:38;;;;;;;11.98;5.47;;;;;;;2.74;74.18;101775.22;4687310;30;20049;-88
2022/04/10 00:20:05;;;;;;;12.32;6.07;;;;;;;2.75;74.24;101781.31;4693576;30;20402;-88
2022/04/10 00:22:30;;;;;;;11.95;6.72;;;;;;;2.72;74.18;101779.59;4704944;30;20558;-89
2022/04/10 00:24:56;;;;;;;11.25;5.85;;;;;;;2.73;74.17;101776.09;4690626;30;20029;-88
2022/04/10 00:27:21;;;;;;;13.05;6.18;;;;;;;2.74;73.97;101769.13;4690822;30;20040;-88
2022/04/10 00:29:47;;;;;;;14.48;6.03;;;;;;;2.74;74.34;101777.84;4706919;30;20105;-88
2022/04/10 00:32:12;;;;;;;10.90;5.65;;;;;;;2.70;74.37;101777.81;4687813;30;20099;-88
2022/04/10 00:34:37;;;;;;;13.23;6.22;;;;;;;2.62;74.76;101775.16;4703525;30;20033;-88
2022/04/10 00:37:03;;;;;;;12.75;5.57;;;;;;;2.50;74.93;101768.09;4709334;30;20099;-88
2022/04/10 00:39:28;;;;;;;11.07;6.30;;;;;;;2.48;75.06;101762.00;4705515;30;20047;-88
2022/04/10 00:41:55;;;;;;;13.52;6.03;;;;;;;2.52;74.75;101765.53;4687771;30;20041;-88
2022/04/10 00:44:20;;;;;;;13.73;5.60;;;;;;;2.47;74.99;101754.13;4703346;30;20506;-88
2022/04/10 00:46:46;;;;;;;14.02;6.05;;;;;;;2.51;75.42;101764.63;4717538;30;20060;-88
2022/04/10 00:49:11;;;;;;;10.10;5.55;;;;;;;2.42;75.05;101761.94;4687288;30;20060;-88
2022/04/10 00:51:40;;;;;;;11.07;6.03;;;;;;;2.44;75.09;101762.84;4717496;30;20068;-88
2022/04/10 00:54:08;;;;;;;17.38;6.57;;;;;;;2.42;75.46;101769.75;4688283;30;20037;-88
2022/04/10 00:56:34;;;;;;;13.35;6.40;;;;;;;2.29;75.53;101741.84;4691584;30;20079;-88
2022/04/10 00:59:02;;;;;;;10.05;6.72;;;;;;;2.43;75.10;101770.66;4705396;30;20489;-88
2022/04/10 01:01:28;;;;;;;13.93;6.10;;;;;;;2.38;75.24;101764.50;4705397;30;20083;-88
2022/04/10 01:03:53;;;;;;;9.80;5.97;;;;;;;2.34;75.04;101768.84;4688208;30;20498;-88
2022/04/10 01:06:18;;;;;;;11.07;6.60;;;;;;;2.27;75.74;101762.69;4708792;30;20024;-88
2022/04/10 01:08:44;;;;;;;8.63;5.85;;;;;;;2.20;75.77;101765.25;4702802;30;20329;-88
2022/04/10 01:11:09;;;;;;;11.02;6.57;;;;;;;2.09;75.77;101752.09;4713802;30;20155;-88
2022/04/10 01:13:35;;;;;;;13.43;6.50;;;;;;;2.09;76.14;101756.44;4713909;30;20115;-88
2022/04/10 01:16:00;;;;;;;10.13;6.38;;;;;;;2.15;76.35;101772.16;4703165;30;20067;-89
2022/04/10 01:18:26;;;;;;;17.33;6.95;;;;;;;2.13;76.57;101771.25;4688206;30;20032;-89
2022/04/10 01:20:52;;;;;;;13.13;6.50;;;;;;;2.03;75.99;101750.28;4691919;30;20037;-88
2022/04/10 01:23:18;;;;;;;14.50;6.25;;;;;;;2.09;76.80;101753.81;4704357;30;20045;-89
2022/04/10 01:25:44;;;;;;;13.32;6.57;;;;;;;2.10;76.82;101752.94;4685044;30;20121;-88
2022/04/10 01:28:11;;;;;;;11.05;6.55;;;;;;;2.17;76.46;101763.47;4708888;30;20803;-88
2022/04/10 01:30:36;;;;;;;10.85;7.07;;;;;;;2.17;76.53;101765.22;4701718;30;20064;-88
2022/04/10 01:33:01;;;;;;;15.40;7.13;;;;;;;2.17;76.52;101763.47;4690307;30;20541;-88
2022/04/10 01:35:27;;;;;;;12.13;6.93;;;;;;;2.27;76.27;101773.13;4682625;30;20114;-89
2022/04/10 01:37:54;;;;;;;16.13;7.93;;;;;;;2.20;76.72;101760.03;4685651;30;20072;-88
2022/04/10 01:40:20;;;;;;;9.57;7.40;;;;;;;2.29;76.39;101767.94;4688716;30;20075;-89
2022/04/10 01:42:45;;;;;;;19.10;8.63;;;;;;;2.33;76.69;101753.16;4703352;30;20501;-89
2022/04/10 01:45:10;;;;;;;17.85;9.23;;;;;;;2.39;76.69;101745.41;4702279;30;21277;-89
2022/04/10 01:47:36;;;;;;;18.10;8.95;;;;;;;2.47;76.97;101760.25;4690827;30;20040;-88
2022/04/10 01:50:02;;;;;;;20.15;8.77;;;;;;;2.43;76.78;101755.88;4701718;30;20072;-88
2022/04/10 01:52:27;;;;;;;17.20;9.15;;;;;;;2.42;76.51;101761.94;4705321;30;20040;-88
2022/04/10 01:54:53;;;;;;;14.90;8.77;;;;;;;2.37;76.52;101753.19;4689272;30;20269;-88
2022/04/10 01:57:18;;;;;;;14.65;8.52;;;;;;;2.43;76.42;101776.75;4690492;30;20045;-88
2022/04/10 01:59:43;;;;;;;12.00;7.70;;;;;;;2.41;76.28;101770.63;4702385;30;20037;-88
2022/04/10 02:02:09;;;;;;;15.07;8.90;;;;;;;2.41;76.72;101780.19;4704616;30;20040;-88
2022/04/10 02:04:35;;;;;;;22.58;8.60;;;;;;;2.42;76.42;101782.81;4702454;30;20048;-89
2022/04/10 02:07:01;;;;;;;16.80;8.98;;;;;;;2.45;76.90;101787.19;4691029;30;20134;-88
2022/04/10 02:09:26;;;;;;;14.38;8.68;;;;;;;2.43;76.86;101792.41;4702948;30;20033;-88
2022/04/10 02:11:51;;;;;;;18.58;8.70;;;;;;;2.36;76.52;101790.59;4690480;30;20538;-88
2022/04/10 02:14:17;;;;;;;16.02;9.55;;;;;;;2.27;76.92;101788.78;4690471;30;20061;-89
2022/04/10 02:16:42;;;;;;;14.43;9.15;;;;;;;2.26;77.28;101781.81;4696121;30;20041;-88
2022/04/10 02:19:07;;;;;;;18.00;9.57;;;;;;;2.26;77.28;101794.00;4710060;30;20098;-88
2022/04/10 02:21:32;;;;;;;17.05;9.13;;;;;;;2.21;77.17;101782.66;4713004;30;20048;-88
2022/04/10 02:23:58;;;;;;;13.32;8.85;;;;;;;2.15;77.01;101783.47;4690166;30;20510;-88
2022/04/10 02:26:23;;;;;;;14.02;8.55;;;;;;;2.14;76.81;101786.03;4688545;30;20074;-89
2022/04/10 02:28:49;;;;;;;15.10;9.77;;;;;;;2.13;76.57;101790.38;4703217;30;20163;-88
2022/04/10 02:31:14;;;;;;;20.00;10.50;;;;;;;2.02;77.72;101781.59;4702599;30;20065;-89
2022/04/10 02:33:40;;;;;;;12.38;9.15;;;;;;;2.00;77.23;101793.72;4690340;30;21562;-88
2022/04/10 02:36:05;;;;;;;13.07;9.40;;;;;;;1.96;77.41;101792.84;4702643;30;20112;-88
2022/04/10 02:38:31;;;;;;;16.02;9.43;;;;;;;1.84;77.54;101779.66;4687934;30;20613;-88
2022/04/10 02:40:56;;;;;;;15.80;9.55;;;;;;;1.81;77.85;101781.34;4698841;30;20071;-88
2022/04/10 02:43:21;;;;;;;17.98;10.98;;;;;;;1.85;77.66;101798.78;4700443;30;20087;-88
2022/04/10 02:45:47;;;;;;;12.52;9.73;;;;;;;1.70;77.37;101789.94;4687284;30;20327;-88
2022/04/10 02:48:12;;;;;;;14.70;8.88;;;;;;;1.71;77.29;101796.03;4703046;30;20543;-88
2022/04/10 02:50:38;;;;;;;15.35;9.48;;;;;;;1.70;78.03;101812.53;4704320;30;20044;-88
2022/04/10 02:53:04;;;;;;;14.65;9.43;;;;;;;1.64;76.89;101817.66;4689481;30;20792;-89
2022/04/10 02:55:29;;;;;;;17.13;9.68;;;;;;;1.54;77.24;101806.25;4701310;30;20041;-88
2022/04/10 02:57:55;;;;;;;19.75;9.52;;;;;;;1.57;77.60;101813.22;4707952;30;20040;-88
2022/04/10 03:00:20;;;;;;;13.25;8.77;;;;;;;1.53;77.20;101820.13;4704507;30;20589;-88
2022/04/10 03:02:46;;;;;;;15.95;9.10;;;;;;;1.47;77.31;101809.63;4706601;30;20323;-88
2022/04/10 03:05:12;;;;;;;14.85;9.45;;;;;;;1.37;77.66;101805.16;4707749;30;20487;-89
2022/04/10 03:07:38;;;;;;;15.70;10.63;;;;;;;1.42;78.13;101816.53;4693914;30;20043;-88
2022/04/10 03:10:04;;;;;;;18.52;9.75;;;;;;;1.46;78.28;101827.00;4696140;30;20379;-88
2022/04/10 03:12:29;;;;;;;15.57;10.60;;;;;;;1.42;77.79;101817.38;4706943;30;20495;-88
2022/04/10 03:14:55;;;;;;;16.77;9.80;;;;;;;1.32;77.27;101807.72;4691056;30;20039;-88
2022/04/10 03:17:20;;;;;;;16.73;11.15;;;;;;;1.33;78.58;101809.44;4706763;30;20045;-88
2022/04/10 03:19:46;;;;;;;19.42;11.77;;;;;;;1.34;78.53;101818.13;4706767;30;20029;-88
2022/04/10 03:22:11;;;;;;;18.70;10.85;;;;;;;1.31;77.79;101819.00;4706293;30;20045;-88
2022/04/10 03:24:36;;;;;;;17.88;10.55;;;;;;;1.19;78.43;101795.38;4707275;30;20372;-88
2022/04/10 03:27:02;;;;;;;19.25;11.07;;;;;;;1.25;78.39;101805.84;4692223;30;20053;-88
2022/04/10 03:29:27;;;;;;;18.42;11.30;;;;;;;1.24;79.07;101817.13;4706674;30;20029;-88
2022/04/10 03:31:52;;;;;;;15.95;11.18;;;;;;;1.19;79.08;101824.91;4691344;30;20045;-88
2022/04/10 03:34:17;;;;;;;17.67;11.07;;;;;;;1.12;79.13;101819.56;4707161;30;20062;-88
2022/04/10 03:36:43;;;;;;;17.70;11.02;;;;;;;1.11;79.29;101818.69;4691201;30;20075;-88
2022/04/10 03:39:08;;;;;;;17.25;11.48;;;;;;;1.09;79.18;101817.81;4706986;30;20037;-88
2022/04/10 03:41:33;;;;;;;17.48;11.70;;;;;;;1.09;79.31;101819.53;4709968;30;20131;-88
2022/04/10 03:43:59;;;;;;;16.25;11.02;;;;;;;1.01;79.70;101816.81;4701267;30;20033;-88
2022/04/10 03:46:24;;;;;;;18.38;12.10;;;;;;;0.96;79.83;101814.13;4689367;30;20560;-88
2022/04/10 03:48:49;;;;;;;24.27;11.98;;;;;;;0.96;79.97;101813.28;4691256;30;20028;-88
2022/04/10 03:51:15;;;;;;;21.05;12.00;;;;;;;0.98;80.02;101817.66;4707090;30;20560;-88
2022/04/10 03:53:40;;;;;;;21.45;12.98;;;;;;;0.95;79.97;101814.13;4690292;30;20064;-88
2022/04/10 03:56:05;;;;;;;18.10;12.82;;;;;;;0.95;80.40;101816.72;4696577;30;20037;-89
2022/04/10 03:58:31;;;;;;;19.02;12.00;;;;;;;1.05;79.87;101842.03;4692301;30;20041;-88
2022/04/10 04:00:56;;;;;;;19.45;12.45;;;;;;;0.93;80.20;101826.22;4704514;30;20044;-89
2022/04/10 04:03:22;;;;;;;16.17;11.75;;;;;;;0.90;79.97;101828.81;4709415;30;20033;-88
2022/04/10 04:05:47;;;;;;;19.35;12.25;;;;;;;0.84;80.35;101832.19;4691104;30;20567;-88
2022/04/10 04:08:12;;;;;;;17.25;11.13;;;;;;;0.90;79.60;101842.69;4700670;30;20124;-88
2022/04/10 04:10:38;;;;;;;22.42;11.88;;;;;;;0.82;79.04;101835.63;4707677;30;20067;-88
2022/04/10 04:13:03;;;;;;;16.40;12.27;;;;;;;0.86;79.90;101838.28;4706950;30;20037;-88
2022/04/10 04:15:28;;;;;;;16.33;11.90;;;;;;;0.89;79.10;101842.69;4706650;30;20040;-88
2022/04/10 04:17:54;;;;;;;19.15;12.15;;;;;;;0.91;80.11;101846.16;4703956;30;20454;-88
2022/04/10 04:20:19;;;;;;;16.15;11.40;;;;;;;0.85;79.59;101846.09;4704011;30;20094;-89
2022/04/10 04:22:45;;;;;;;22.08;12.50;;;;;;;0.79;80.20;101832.94;4689120;30;20041;-88
2022/04/10 04:25:10;;;;;;;19.15;12.23;;;;;;;0.83;80.18;101839.97;4691994;30;20036;-88
2022/04/10 04:27:35;;;;;;;20.15;12.70;;;;;;;0.83;80.18;101851.25;4692769;30;20048;-88
2022/04/10 04:30:01;;;;;;;19.80;11.77;;;;;;;0.78;78.48;101839.88;4691004;30;20032;-88
2022/04/10 04:32:27;;;;;;;16.85;12.05;;;;;;;0.69;77.97;101840.59;4705121;30;20418;-88
2022/04/10 04:34:52;;;;;;;22.98;12.38;;;;;;;0.72;79.12;101852.81;4691527;30;20032;-88
2022/04/10 04:37:18;;;;;;;17.58;11.10;;;;;;;0.59;78.97;101845.66;4704723;30;20045;-88
2022/04/10 04:39:43;;;;;;;18.63;12.32;;;;;;;0.60;79.71;101848.25;4690826;30;20040;-88
2022/04/10 04:42:08;;;;;;;16.85;11.27;;;;;;;0.67;79.63;101851.88;4709639;30;20558;-88
2022/04/10 04:44:33;;;;;;;20.95;12.70;;;;;;;0.72;80.03;101850.22;4686708;30;20040;-88
2022/04/10 04:46:59;;;;;;;16.30;11.52;;;;;;;0.76;79.74;101858.09;4702662;30;20041;-88
2022/04/10 04:49:26;;;;;;;18.75;11.48;;;;;;;0.75;79.49;101863.28;4684670;30;20097;-88
2022/04/10 04:51:51;;;;;;;16.58;11.68;;;;;;;0.68;79.24;101859.69;4699607;30;20582;-88
2022/04/10 04:54:17;;;;;;;18.30;11.68;;;;;;;0.67;79.26;101851.88;4703872;30;20541;-88
2022/04/10 04:56:42;;;;;;;22.10;13.23;;;;;;;0.69;80.06;101861.44;4684947;30;20749;-88
2022/04/10 04:59:07;;;;;;;20.65;13.07;;;;;;;0.73;80.60;101863.25;4684661;30;20044;-88
2022/04/10 05:01:33;;;;;;;18.23;11.63;;;;;;;0.77;80.51;101875.44;4688105;30;20522;-88
2022/04/10 05:03:58;;;;;;;22.35;13.38;;;;;;;0.64;81.05;101841.38;4702160;30;20823;-89
2022/04/10 05:06:25;;;;;;;18.05;11.98;;;;;;;0.74;80.47;101859.78;4701823;30;20041;-88
2022/04/10 05:08:50;;;;;;;18.63;11.75;;;;;;;0.73;80.15;101872.78;4685650;30;20592;-88
2022/04/10 05:11:16;;;;;;;18.08;11.07;;;;;;;0.63;79.50;101855.25;4687940;30;20064;-88
2022/04/10 05:13:42;;;;;;;18.60;11.60;;;;;;;0.68;80.55;101862.28;4687601;30;20045;-88
2022/04/10 05:16:07;;;;;;;17.95;11.77;;;;;;;0.76;80.34;101875.44;4686694;30;20142;-88
2022/04/10 05:18:33;;;;;;;18.08;11.65;;;;;;;0.76;80.43;101873.72;4687040;30;20051;-88
2022/04/10 05:20:58;;;;;;;16.25;12.15;;;;;;;0.68;80.47;101864.03;4702799;30;20041;-88
2022/04/10 05:23:23;;;;;;;19.02;11.43;;;;;;;0.72;80.56;101863.22;4688729;30;20033;-88
2022/04/10 05:25:50;;;;;;;16.98;11.77;;;;;;;0.82;80.92;101883.34;4702128;30;20135;-87
2022/04/10 05:28:15;;;;;;;19.27;12.48;;;;;;;0.85;81.07;101879.94;4702351;30;20436;-88
2022/04/10 05:30:42;;;;;;;25.23;13.10;;;;;;;0.88;81.12;101885.16;4702013;30;20068;-88
2022/04/10 05:33:07;;;;;;;20.58;12.98;;;;;;;0.90;81.36;101888.69;4700429;30;20037;-88
2022/04/10 05:35:33;;;;;;;16.70;10.88;;;;;;;0.95;80.76;101903.53;4685629;30;20077;-88
2022/04/10 05:37:59;;;;;;;17.08;11.90;;;;;;;1.02;81.12;101902.75;4687369;30;20671;-88
2022/04/10 05:40:24;;;;;;;16.98;11.45;;;;;;;1.02;80.91;101889.72;4688241;30;20137;-88
2022/04/10 05:42:49;;;;;;;14.77;11.10;;;;;;;1.13;81.13;101896.88;4705134;30;20457;-88
2022/04/10 05:45:15;;;;;;;21.38;11.85;;;;;;;1.20;81.45;101901.28;4702180;30;20044;-88
2022/04/10 05:47:41;;;;;;;16.98;11.85;;;;;;;1.28;81.02;101910.09;4686583;30;20033;-88
2022/04/10 05:50:08;;;;;;;19.15;11.75;;;;;;;1.40;81.25;101906.78;4687061;30;20036;-88
2022/04/10 05:52:38;;;;;;;15.02;10.60;;;;;;;1.47;80.86;101911.25;4685944;30;20128;-88
2022/04/10 05:55:04;;;;;;;19.25;11.02;;;;;;;1.57;80.87;101922.69;4686152;30;20085;-88
2022/04/10 05:57:30;;;;;;;15.13;10.93;;;;;;;1.62;80.99;101921.88;4685165;30;20134;-87
2022/04/10 05:59:55;;;;;;;15.98;11.13;;;;;;;1.65;80.70;101931.50;4688714;30;20185;-88
2022/04/10 06:02:20;;;;;;;19.55;12.02;;;;;;;1.83;81.19;101936.09;4704435;30;20495;-88
2022/04/10 06:04:45;;;;;;;20.40;11.70;;;;;;;2.01;81.45;101937.19;4699922;30;20032;-88
2022/04/10 06:07:11;;;;;;;18.17;10.70;;;;;;;2.16;80.96;101933.91;4685088;30;20611;-88
2022/04/10 06:09:36;;;;;;;20.30;12.02;;;;;;;2.34;80.81;101946.28;4684762;30;20517;-88
2022/04/10 06:12:01;;;;;;;19.27;11.77;;;;;;;2.47;80.79;101944.66;4703406;30;20093;-88
2022/04/10 06:14:27;;;;;;;20.13;10.77;;;;;;;2.53;79.65;101943.00;4703711;30;20061;-88
2022/04/10 06:16:52;;;;;;;21.38;11.27;;;;;;;2.61;79.86;101956.16;4688546;30;20122;-88
2022/04/10 06:19:19;;;;;;;16.33;11.00;;;;;;;2.73;79.86;101968.44;4686754;30;20032;-87
2022/04/10 06:21:45;;;;;;;18.42;9.75;;;;;;;2.74;79.53;101957.13;4702715;30;20471;-88
2022/04/10 06:24:10;;;;;;;15.38;10.23;;;;;;;2.86;79.60;101957.25;4689468;30;20366;-88
2022/04/10 06:26:35;;;;;;;16.70;10.52;;;;;;;2.93;79.44;101953.84;4709550;30;20032;-88
2022/04/10 06:29:01;;;;;;;19.27;10.23;;;;;;;3.05;79.54;101958.31;4700235;30;20565;-88
2022/04/10 06:31:26;;;;;;;14.10;9.60;;;;;;;3.13;78.92;101954.03;4696761;30;20503;-89
2022/04/10 06:33:54;;;;;;;21.17;10.02;;;;;;;3.19;79.09;101961.91;4700030;30;20502;-88
2022/04/10 06:36:19;;;;;;;16.35;10.20;;;;;;;3.32;78.72;101965.50;4715403;30;20119;-88
2022/04/10 06:38:44;;;;;;;13.00;8.38;;;;;;;3.41;78.75;101973.41;4714057;30;20675;-88
2022/04/10 06:41:10;;;;;;;21.08;8.82;;;;;;;3.52;78.52;101987.44;4692373;30;20108;-87
2022/04/10 06:43:35;;;;;;;19.95;8.75;;;;;;;3.62;77.85;101979.66;4706295;30;20037;-87
2022/04/10 06:46:00;;;;;;;12.07;7.93;;;;;;;3.74;77.72;101972.78;4700883;30;20044;-87
2022/04/10 06:48:26;;;;;;;10.95;7.70;;;;;;;3.84;77.77;101979.81;4687627;30;20106;-87
2022/04/10 06:50:51;;;;;;;17.23;7.88;;;;;;;3.96;77.16;101978.97;4687055;30;20043;-87
2022/04/10 06:53:16;;;;;;;14.13;8.57;;;;;;;4.08;76.89;101984.28;4705925;30;20110;-88
2022/04/10 06:55:42;;;;;;;12.77;8.20;;;;;;;4.19;76.44;101989.56;4686999;30;20029;-87
2022/04/10 06:58:07;;;;;;;11.48;6.82;;;;;;;4.27;76.28;101984.38;4701549;30;20114;-88
2022/04/10 07:00:32;;;;;;;14.07;7.15;;;;;;;4.38;76.06;101977.41;4688620;30;20045;-88
2022/04/10 07:03:01;;;;;;;19.95;7.25;;;;;;;4.55;75.42;101980.97;4701011;30;21436;-88
2022/04/10 07:05:27;;;;;;;15.88;6.88;;;;;;;4.75;75.43;101993.25;4686800;30;20513;-88
2022/04/10 07:07:52;;;;;;;14.02;6.65;;;;;;;4.84;74.59;101993.25;4707875;30;20045;-88
2022/04/10 07:10:17;;;;;;;10.25;6.47;;;;;;;4.97;74.74;101987.19;4703995;30;20541;-88
2022/04/10 07:12:43;;;;;;;12.07;6.32;;;;;;;5.03;73.98;101992.41;4705048;30;20037;-88
2022/04/10 07:15:08;;;;;;;9.25;5.35;;;;;;;5.18;73.42;101995.97;4707769;30;20529;-87
2022/04/10 07:17:33;;;;;;;10.07;5.97;;;;;;;5.34;73.03;101997.69;4698615;30;20033;-88
2022/04/10 07:19:59;;;;;;;15.50;8.07;;;;;;;5.41;73.50;101996.84;4712125;30;20394;-88
2022/04/10 07:25:08;;;;;;;7.70;5.63;;;;;;;5.57;72.61;101993.31;4709651;30;20481;-88
2022/04/10 07:27:33;;;;;;;8.50;5.30;;;;;;;5.62;72.05;101991.56;4692562;30;20044;-88
2022/04/10 07:29:59;;;;;;;9.80;5.63;;;;;;;5.72;71.97;101983.66;4693841;30;20037;-88
2022/04/10 07:32:24;;;;;;;9.70;5.28;;;;;;;5.86;71.16;101992.38;4712127;30;20053;-88
2022/04/10 07:34:49;;;;;;;7.97;4.85;;;;;;;6.05;71.21;102003.75;4709509;30;20503;-88
2022/04/10 07:37:14;;;;;;;8.15;4.47;;;;;;;6.16;70.77;102001.09;4698829;30;20136;-89
2022/04/10 07:39:41;;;;;;;10.88;5.10;;;;;;;6.30;70.48;102010.69;4711258;30;20106;-89
2022/04/10 07:42:06;;;;;;;9.23;5.05;;;;;;;6.51;70.15;102020.22;4710320;30;20517;-89
2022/04/10 07:44:32;;;;;;;9.07;3.97;;;;;;;6.64;69.00;102016.66;4711513;30;20083;-89
2022/04/10 07:49:41;;;;;;;6.80;3.28;;;;;;;7.10;67.29;102018.13;4708284;30;20630;-89
2022/04/10 07:52:06;;;;;;;7.40;3.70;;;;;;;7.35;66.42;102010.94;4711119;30;20062;-88
2022/04/10 07:54:31;;;;;;;19.65;4.70;;;;;;;7.66;65.56;102024.69;4711635;30;20041;-89
2022/04/10 07:56:57;;;;;;;9.93;4.03;;;;;;;7.93;64.44;102018.31;4694208;30;20494;-88
2022/04/10 07:59:23;;;;;;;10.20;3.15;;;;;;;8.23;62.37;102039.94;4694566;30;20049;-88
2022/04/10 08:01:49;;;;;;;6.47;3.10;;;;;;;8.57;62.08;102037.78;4722216;30;20039;-90
2022/04/10 08:04:14;;;;;;;8.68;2.70;;;;;;;8.91;60.14;102041.72;4730686;30;20033;-89
2022/04/10 08:06:40;;;;;;;4.07;2.60;;;;;;;9.12;59.97;102039.66;4700586;30;20494;-90
2022/04/10 08:09:05;;;;;;;8.77;2.33;;;;;;;9.29;57.44;102040.28;4715105;30;20033;-89
2022/04/10 08:11:31;;;;;;;4.68;2.58;;;;;;;9.41;58.57;102028.66;4699802;30;20048;-91
2022/04/10 08:13:56;;;;;;;8.82;2.78;;;;;;;9.44;56.22;102033.88;4701433;30;20063;-90
2022/04/10 08:16:22;;;;;;;6.70;2.55;;;;;;;9.66;55.94;102053.75;4713144;30;20045;-90
2022/04/10 08:18:56;;;;;;;4.90;2.67;;;;;;;9.92;56.99;102044.50;4694243;30;20051;-92
2022/04/10 08:21:21;;;;;;;4.15;2.00;;;;;;;10.28;54.82;102055.31;4696273;30;20044;-90
2022/04/10 08:23:47;;;;;;;3.28;2.08;;;;;;;10.54;52.67;102050.41;4709960;30;20086;-91
2022/04/10 08:26:12;;;;;;;8.40;2.20;;;;;;;10.78;53.48;102062.22;4698846;30;20571;-92
2022/04/10 08:28:38;;;;;;;5.45;2.10;;;;;;;10.53;52.15;102050.41;4709248;30;20075;-93
2022/04/10 08:31:03;;;;;;;6.97;2.80;;;;;;;10.20;53.20;102063.34;4711331;30;20426;-90
2022/04/10 08:33:28;;;;;;;4.03;1.80;;;;;;;9.96;53.26;102068.19;4723847;30;20055;-92
2022/04/10 08:35:54;;;;;;;5.65;2.00;;;;;;;10.44;53.63;102069.97;4697932;30;20033;-92
2022/04/10 08:38:19;;;;;;;5.35;2.45;;;;;;;10.63;53.79;102074.00;4697138;30;20247;-92
2022/04/10 08:40:45;;;;;;;5.53;2.65;;;;;;;10.34;54.28;102066.63;4712328;30;20040;-92
2022/04/10 08:43:11;;;;;;;7.20;3.13;;;;;;;10.15;55.29;102086.34;4695371;30;20037;-92
2022/04/10 08:45:38;;;;;;;11.13;4.15;;;;;;;9.89;54.94;102087.72;4696208;30;20044;-91
2022/04/10 08:48:04;;;;;;;6.05;2.72;;;;;;;9.53;56.54;102078.63;4700451;30;20114;-90
2022/04/10 08:50:30;;;;;;;6.97;2.63;;;;;;;9.76;57.36;102077.38;4714022;30;20044;-90
2022/04/10 08:52:57;;;;;;;9.73;2.85;;;;;;;10.64;54.90;102088.09;4705621;30;20430;-90
2022/04/10 08:55:23;;;;;;;3.97;2.70;;;;;;;11.50;53.64;102087.03;4714797;30;20043;-90
2022/04/10 08:57:48;;;;;;;5.63;2.58;;;;;;;11.81;50.44;102091.59;4708081;30;20041;-90
2022/04/10 09:00:16;;;;;;;6.68;2.38;;;;;;;12.25;50.51;102086.03;4697168;30;20036;-90
2022/04/10 09:02:49;;;;;;;7.25;2.70;;;;;;;13.43;50.41;102089.66;4696100;30;20041;-89
2022/04/10 09:05:25;;;;;;;4.97;2.25;;;;;;;13.97;47.44;102084.28;4712003;30;20044;-90
2022/04/10 09:08:06;;;;;;;7.65;2.40;;;;;;;14.47;46.29;102083.44;4713861;30;20174;-91
2022/04/10 09:11:00;;;;;;;7.95;2.45;;;;;;;14.90;46.96;102092.50;4711606;30;20116;-91
2022/04/10 09:13:36;;;;;;;3.72;2.28;;;;;;;15.25;44.31;102086.69;4713367;30;20044;-90
2022/04/10 09:16:10;;;;;;;4.55;1.50;;;;;;;15.60;40.75;102088.84;4709769;30;20064;-90
2022/04/10 09:18:47;;;;;;;6.13;1.35;;;;;;;15.68;41.76;102084.97;4715136;30;20324;-91
2022/04/10 09:21:13;;;;;;;4.70;1.90;;;;;;;15.86;38.10;102082.47;4709339;30;20649;-90
2022/04/10 09:23:39;;;;;;;3.13;1.42;;;;;;;16.04;36.78;102085.22;4712354;30;20095;-92
2022/04/10 09:26:04;;;;;;;6.30;1.77;;;;;;;16.23;38.50;102073.75;4707821;30;20045;-91
2022/04/10 09:28:49;;;;;;;6.82;1.80;;;;;;;16.19;37.62;102083.69;4708309;30;20037;-91
2022/04/10 09:31:31;;;;;;;5.15;1.55;;;;;;;16.20;38.71;102100.56;4689753;30;20454;-90
2022/04/10 09:33:58;;;;;;;3.53;1.40;;;;;;;16.26;37.22;102076.25;4710442;30;20043;-91
2022/04/10 09:36:39;;;;;;;6.30;1.70;;;;;;;16.63;38.59;102083.47;4691504;30;20037;-90
2022/04/10 09:39:31;;;;;;;5.40;1.92;;;;;;;17.31;38.89;102079.41;4704931;30;20033;-91
2022/04/10 09:42:03;;;;;;;;;;;;;;;16.96;38.31;102083.75;4697336;30;20060;-91
2022/04/10 09:44:32;;;;;;;3.97;1.50;;;;;;;15.83;36.59;102078.13;4708169;30;19993;-90
2022/04/10 09:47:00;;;;;;;5.18;1.98;;;;;;;14.92;40.44;102085.31;4694360;30;20040;-90
2022/04/10 09:49:31;;;;;;;6.30;2.00;;;;;;;15.49;38.33;102083.97;4696926;30;20083;-91
2022/04/10 09:52:02;;;;;;;2.53;1.40;;;;;;;16.58;37.00;102066.81;4712508;30;20321;-91
2022/04/10 09:54:46;;;;;;;6.28;1.60;;;;;;;17.71;37.32;102079.22;4695850;30;20028;-91
2022/04/10 09:57:15;;;;;;;5.07;1.70;;;;;;;17.96;33.15;102073.53;4724324;30;20090;-91
2022/04/10 09:59:43;;;;;;;4.22;1.50;;;;;;;18.36;34.15;102085.69;4712039;30;20029;-91
2022/04/10 10:02:09;;;;;;;3.35;1.05;;;;;;;17.66;29.27;102082.13;4696271;30;20049;-90
2022/04/10 10:04:37;;;;;;;4.07;1.30;;;;;;;18.23;32.19;102088.19;4697088;30;20491;-92
2022/04/10 10:07:19;;;;;;;5.45;1.83;;;;;;;18.61;33.87;102085.25;4715030;30;20090;-91
2022/04/10 10:09:49;;;;;;;3.95;1.65;;;;;;;17.49;30.67;102076.78;4722749;30;20041;-90
2022/04/10 10:12:16;;;;;;;3.03;1.30;;;;;;;16.23;33.07;102085.28;4712664;30;20081;-91
2022/04/10 10:14:41;;;;;;;3.20;1.40;;;;;;;15.23;34.33;102085.84;4712638;30;20106;-90
2022/04/10 10:17:08;;;;;;;4.03;1.33;;;;;;;14.98;34.63;102083.31;4693898;30;20511;-90
2022/04/10 10:19:38;;;;;;;4.40;1.30;;;;;;;15.25;35.83;102081.34;4712530;30;20063;-90
2022/04/10 10:22:09;;;;;;;5.25;1.20;;;;;;;15.05;35.94;102075.94;4709643;30;20124;-90
2022/04/10 10:25:00;;;;;;;4.03;1.35;;;;;;;15.15;36.79;102074.63;4699448;30;20029;-91
2022/04/10 10:27:45;;;;;;;3.10;1.10;;;;;;;16.17;34.92;102074.84;4713853;30;20200;-91
2022/04/10 10:30:25;;;;;;;6.93;1.65;;;;;;;15.83;35.03;102072.78;4707156;30;20415;-91
2022/04/10 10:32:55;;;;;;;4.32;1.80;;;;;;;15.28;35.92;102073.22;4695080;30;20155;-90
2022/04/10 10:35:33;;;;;;;4.25;1.20;;;;;;;14.93;36.62;102073.75;4695188;30;20049;-89
2022/04/10 10:38:00;;;;;;;6.07;1.25;;;;;;;14.74;35.17;102055.81;4690700;30;20044;-91
2022/04/10 10:40:26;;;;;;;3.20;1.23;;;;;;;14.84;34.16;102063.47;4696384;30;20273;-90
2022/04/10 10:42:55;;;;;;;3.67;1.40;;;;;;;14.64;34.90;102065.09;4712145;30;21031;-90
2022/04/10 10:45:37;;;;;;;5.43;1.35;;;;;;;15.30;35.91;102059.84;4714086;30;20120;-91
2022/04/10 10:48:25;;;;;;;2.88;1.38;;;;;;;16.34;36.03;102063.44;4712337;30;20079;-91
2022/04/10 10:50:52;;;;;;;3.83;1.45;;;;;;;15.82;33.88;102063.91;4688533;30;20047;-92
2022/04/10 10:53:47;;;;;;;4.18;1.33;;;;;;;15.24;37.06;102078.72;4696430;30;20032;-91
2022/04/10 10:56:27;;;;;;;3.22;1.30;;;;;;;15.03;36.65;102080.47;4709109;30;20445;-91
2022/04/10 10:58:55;;;;;;;3.25;1.30;;;;;;;15.55;34.01;102067.72;4709851;30;20514;-93
2022/04/10 11:01:26;;;;;;;3.25;1.02;;;;;;;16.19;33.32;102075.66;4694962;30;20040;-92
2022/04/10 11:04:09;;;;;;;3.28;1.50;;;;;;;16.66;33.40;102075.34;4714025;30;20043;-93
2022/04/10 11:06:45;;;;;;;4.50;1.20;;;;;;;16.73;34.35;102075.94;4711265;30;20570;-93
2022/04/10 11:09:29;;;;;;;5.20;1.60;;;;;;;17.15;34.72;102066.84;4699929;30;20111;-95
2022/04/10 11:11:57;;;;;;;3.30;1.20;;;;;;;17.47;30.20;102062.59;4698186;30;20033;-93
2022/04/10 11:14:39;;;;;;;4.15;1.52;;;;;;;17.96;31.31;102076.22;4709547;30;20399;-92
2022/04/10 11:17:16;;;;;;;1.75;1.38;;;;;;;17.97;30.67;102068.09;4693899;30;20029;-92
2022/04/10 11:20:04;;;;;;;1.42;1.20;;;;;;;17.03;32.50;102060.28;4726546;30;20130;-91
2022/04/10 11:22:39;;;;;;;4.05;1.30;;;;;;;16.54;33.48;102065.22;4699517;30;20031;-91
2022/04/10 11:25:07;;;;;;;3.58;1.60;;;;;;;16.81;31.96;102063.09;4718269;30;20083;-92
2022/04/10 11:27:55;;;;;;;3.35;1.15;;;;;;;17.14;33.27;102063.31;4727413;30;20044;-92
2022/04/10 11:30:31;;;;;;;3.88;1.30;;;;;;;17.23;30.27;102057.53;4715366;30;20138;-93